createdAt,value
2017-11-01T00:00:06.112Z,2.60
2017-11-01T00:02:32.894Z,2.60
2017-11-01T00:04:59.875Z,2.50
2017-11-01T00:07:26.519Z,2.50
2017-11-01T00:09:53.167Z,2.40
2017-11-01T00:12:20.097Z,2.40
2017-11-01T00:14:47.227Z,2.40
2017-11-01T00:17:13.849Z,2.40
2017-11-01T00:19:40.647Z,2.40
2017-11-01T00:22:07.199Z,2.30
2017-11-01T00:24:33.739Z,2.30
2017-11-01T00:27:00.437Z,2.40
2017-11-01T00:29:27.058Z,2.40
2017-11-01T00:31:53.679Z,2.40
2017-11-01T00:34:20.706Z,2.30
2017-11-01T00:36:47.302Z,2.30
2017-11-01T00:39:13.922Z,2.30
2017-11-01T00:41:40.572Z,2.20
2017-11-01T00:44:07.193Z,2.10
2017-11-01T00:46:33.816Z,2.20
2017-11-01T00:49:00.511Z,2.30
2017-11-01T00:51:27.161Z,2.40
2017-11-01T00:53:54.163Z,2.30
2017-11-01T00:56:20.887Z,2.40
2017-11-01T00:58:47.534Z,2.40
2017-11-01T01:01:14.667Z,2.60
2017-11-01T01:03:41.288Z,2.60
2017-11-01T01:06:07.911Z,2.70
2017-11-01T01:08:34.942Z,2.60
2017-11-01T01:11:01.918Z,2.60
2017-11-01T01:13:28.462Z,2.60
2017-11-01T01:15:55.113Z,2.60
2017-11-01T01:18:22.114Z,2.70
2017-11-01T01:20:48.735Z,2.70
2017-11-01T01:23:15.487Z,2.80
2017-11-01T01:25:42.182Z,2.80
2017-11-01T01:28:08.803Z,2.80
2017-11-01T01:30:35.554Z,2.80
2017-11-01T01:33:02.589Z,2.80
2017-11-01T01:35:29.208Z,2.80
2017-11-01T01:37:56.238Z,2.80
2017-11-01T01:40:23.138Z,2.80
2017-11-01T01:42:49.760Z,2.80
2017-11-01T01:45:16.417Z,2.80
2017-11-01T01:47:43.439Z,2.90
2017-11-01T01:50:10.468Z,3.00
2017-11-01T01:52:37.091Z,3.00
2017-11-01T01:55:03.919Z,3.00
2017-11-01T01:57:30.511Z,3.00
2017-11-01T01:59:57.130Z,3.00
2017-11-01T02:02:23.858Z,3.00
2017-11-01T02:04:50.579Z,3.00
2017-11-01T02:07:17.330Z,3.00
2017-11-01T02:09:44.127Z,3.10
2017-11-01T02:12:10.775Z,3.10
2017-11-01T02:14:37.704Z,3.10
2017-11-01T02:17:04.327Z,3.20
2017-11-01T02:19:31.023Z,3.20
2017-11-01T02:21:57.677Z,3.20
2017-11-01T02:24:25.009Z,3.10
2017-11-01T02:26:51.738Z,3.20
2017-11-01T02:29:18.740Z,3.00
2017-11-01T02:31:45.531Z,3.00
2017-11-01T02:34:12.207Z,3.00
2017-11-01T02:36:38.932Z,3.10
2017-11-01T02:39:05.858Z,3.10
2017-11-01T02:41:32.894Z,3.40
2017-11-01T02:43:59.617Z,3.40
2017-11-01T02:46:26.545Z,3.40
2017-11-01T02:48:53.242Z,3.40
2017-11-01T02:51:19.875Z,3.40
2017-11-01T02:53:46.613Z,3.40
2017-11-01T02:56:13.411Z,3.30
2017-11-01T02:58:40.060Z,3.30
2017-11-01T03:01:07.162Z,3.30
2017-11-01T03:03:33.785Z,3.30
2017-11-01T03:06:00.511Z,3.40
2017-11-01T03:08:27.243Z,3.40
2017-11-01T03:10:53.885Z,3.50
2017-11-01T03:13:20.869Z,3.40
2017-11-01T03:15:47.820Z,3.40
2017-11-01T03:18:14.462Z,3.40
2017-11-01T03:20:41.082Z,3.50
2017-11-01T03:23:08.215Z,3.50
2017-11-01T03:25:34.915Z,3.50
2017-11-01T03:28:01.557Z,3.50
2017-11-01T03:30:28.286Z,3.50
2017-11-01T03:32:54.907Z,3.50
2017-11-01T03:35:21.515Z,3.50
2017-11-01T03:37:48.251Z,3.50
2017-11-01T03:40:14.974Z,3.50
2017-11-01T03:42:41.697Z,3.50
2017-11-01T03:45:08.421Z,3.50
2017-11-01T03:47:35.249Z,3.60
2017-11-01T03:50:01.961Z,3.60
2017-11-01T03:52:28.900Z,3.60
2017-11-01T03:54:55.626Z,3.60
2017-11-01T03:57:22.347Z,3.60
2017-11-01T03:59:49.039Z,3.70
2017-11-01T04:02:15.793Z,3.60
2017-11-01T04:04:42.516Z,3.70
2017-11-01T04:07:09.239Z,3.60
2017-11-01T04:09:36.065Z,3.60
2017-11-01T04:12:02.767Z,3.60
2017-11-01T04:14:29.515Z,3.70
2017-11-01T04:16:56.545Z,3.80
2017-11-01T04:19:23.269Z,3.80
2017-11-01T04:21:50.474Z,3.70
2017-11-01T04:24:17.204Z,3.80
2017-11-01T04:26:43.790Z,3.70
2017-11-01T04:29:10.547Z,3.80
2017-11-01T04:31:37.191Z,3.80
2017-11-01T04:34:03.919Z,3.80
2017-11-01T04:36:30.650Z,3.80
2017-11-01T04:38:57.671Z,3.70
2017-11-01T04:41:24.394Z,3.80
2017-11-01T04:43:51.218Z,3.70
2017-11-01T04:46:17.943Z,3.80
2017-11-01T04:48:44.768Z,3.80
2017-11-01T04:51:11.595Z,4.00
2017-11-01T04:53:39.240Z,3.90
2017-11-01T04:56:05.934Z,3.90
2017-11-01T04:58:35.554Z,3.80
2017-11-01T05:01:02.292Z,3.80
2017-11-01T05:03:29.005Z,3.80
2017-11-01T05:05:56.238Z,3.80
2017-11-01T05:08:28.914Z,3.80
2017-11-01T05:10:56.135Z,3.90
2017-11-01T05:13:22.832Z,3.90
2017-11-01T05:15:49.501Z,3.90
2017-11-01T05:18:17.186Z,3.80
2017-11-01T05:20:43.846Z,3.80
2017-11-01T05:23:10.474Z,3.80
2017-11-01T05:25:39.752Z,3.90
2017-11-01T05:28:06.447Z,3.90
2017-11-01T05:30:33.201Z,3.80
2017-11-01T05:33:00.027Z,3.80
2017-11-01T05:35:26.750Z,3.80
2017-11-01T05:37:53.473Z,3.80
2017-11-01T05:40:20.522Z,4.00
2017-11-01T05:42:47.203Z,4.00
2017-11-01T05:45:13.949Z,4.00
2017-11-01T05:47:40.775Z,4.00
2017-11-01T05:50:10.366Z,4.00
2017-11-01T05:52:36.998Z,4.00
2017-11-01T05:55:04.229Z,4.10
2017-11-01T05:57:30.948Z,4.10
2017-11-01T05:59:57.672Z,4.10
2017-11-01T06:02:24.496Z,4.10
2017-11-01T06:04:51.221Z,4.10
2017-11-01T06:07:18.327Z,4.10
2017-11-01T06:09:45.214Z,4.10
2017-11-01T06:12:11.902Z,4.20
2017-11-01T06:14:38.622Z,4.20
2017-11-01T06:17:05.345Z,4.30
2017-11-01T06:19:32.047Z,4.30
2017-11-01T06:21:58.770Z,4.30
2017-11-01T06:24:25.521Z,4.30
2017-11-01T06:26:52.244Z,4.30
2017-11-01T06:29:18.967Z,4.30
2017-11-01T06:31:45.793Z,4.30
2017-11-01T06:34:12.791Z,4.30
2017-11-01T06:36:39.547Z,4.30
2017-11-01T06:39:06.270Z,4.40
2017-11-01T06:41:32.996Z,4.40
2017-11-01T06:43:59.695Z,4.50
2017-11-01T06:46:26.415Z,4.60
2017-11-01T06:48:53.064Z,4.60
2017-11-01T06:51:20.197Z,4.60
2017-11-01T06:53:47.298Z,4.70
2017-11-01T06:56:14.051Z,4.70
2017-11-01T06:58:40.776Z,4.80
2017-11-01T07:01:07.987Z,4.90
2017-11-01T07:03:34.631Z,4.90
2017-11-01T07:06:04.123Z,5.00
2017-11-01T07:08:31.024Z,5.00
2017-11-01T07:10:57.671Z,5.10
2017-11-01T07:13:24.798Z,5.10
2017-11-01T07:15:51.734Z,5.10
2017-11-01T07:18:18.840Z,5.10
2017-11-01T07:20:45.459Z,5.10
2017-11-01T07:23:12.209Z,5.10
2017-11-01T07:25:39.239Z,5.20
2017-11-01T07:28:05.790Z,5.20
2017-11-01T07:30:32.484Z,5.20
2017-11-01T07:32:59.105Z,5.30
2017-11-01T07:35:26.107Z,5.40
2017-11-01T07:37:52.757Z,5.40
2017-11-01T07:40:19.315Z,5.40
2017-11-01T07:42:45.884Z,5.50
2017-11-01T07:45:12.498Z,5.50
2017-11-01T07:47:39.056Z,5.50
2017-11-01T07:50:05.635Z,5.60
2017-11-01T07:52:32.428Z,5.60
2017-11-01T07:54:59.079Z,5.50
2017-11-01T07:57:25.646Z,5.60
2017-11-01T07:59:52.357Z,5.60
2017-11-01T08:02:19.377Z,5.60
2017-11-01T08:04:45.997Z,5.60
2017-11-01T08:07:12.722Z,5.60
2017-11-01T08:09:39.342Z,5.70
2017-11-01T08:12:05.939Z,5.70
2017-11-01T08:14:33.346Z,5.70
2017-11-01T08:17:00.026Z,5.80
2017-11-01T08:19:26.620Z,5.80
2017-11-01T08:21:53.371Z,6.00
2017-11-01T08:24:20.298Z,6.20
2017-11-01T08:26:46.851Z,6.20
2017-11-01T08:29:13.515Z,6.30
2017-11-01T08:31:40.071Z,6.30
2017-11-01T08:34:06.998Z,6.50
2017-11-01T08:36:34.067Z,6.60
2017-11-01T08:39:00.631Z,6.50
2017-11-01T08:41:27.175Z,6.50
2017-11-01T08:43:54.267Z,6.60
2017-11-01T08:46:20.827Z,6.60
2017-11-01T08:48:47.767Z,6.60
2017-11-01T08:51:14.448Z,6.60
2017-11-01T08:53:41.047Z,6.60
2017-11-01T08:56:07.633Z,6.60
2017-11-01T08:58:34.275Z,6.60
2017-11-01T09:01:00.892Z,6.70
2017-11-01T09:03:27.452Z,6.70
2017-11-01T09:05:54.087Z,6.70
2017-11-01T09:08:21.005Z,7.00
2017-11-01T09:10:47.637Z,7.00
2017-11-01T09:13:14.359Z,7.00
2017-11-01T09:15:40.979Z,7.10
2017-11-01T09:18:07.675Z,7.10
2017-11-01T09:20:34.287Z,7.10
2017-11-01T09:23:00.848Z,7.10
2017-11-01T09:25:27.782Z,7.20
2017-11-01T09:27:55.622Z,7.20
2017-11-01T09:30:22.188Z,7.20
2017-11-01T09:32:48.869Z,7.30
2017-11-01T09:35:15.997Z,7.30
2017-11-01T09:37:42.591Z,7.30
2017-11-01T09:40:09.238Z,7.30
2017-11-01T09:42:35.963Z,7.40
2017-11-01T09:45:02.560Z,7.40
2017-11-01T09:47:29.119Z,7.50
2017-11-01T09:49:56.096Z,7.60
2017-11-01T09:52:22.647Z,7.50
2017-11-01T09:54:49.727Z,7.60
2017-11-01T09:57:16.355Z,7.70
2017-11-01T09:59:42.908Z,7.70
2017-11-01T10:02:09.478Z,7.80
2017-11-01T10:04:36.084Z,7.80
2017-11-01T10:07:02.638Z,7.90
2017-11-01T10:09:29.191Z,7.90
2017-11-01T10:11:55.803Z,8.00
2017-11-01T10:14:22.347Z,8.10
2017-11-01T10:16:49.276Z,8.30
2017-11-01T10:19:15.998Z,8.30
2017-11-01T10:21:42.944Z,8.50
2017-11-01T10:24:09.507Z,8.50
2017-11-01T10:26:37.074Z,8.70
2017-11-01T10:29:03.710Z,8.70
2017-11-01T10:31:30.254Z,8.80
2017-11-01T10:33:56.875Z,8.80
2017-11-01T10:36:23.431Z,8.80
2017-11-01T10:38:50.389Z,8.90
2017-11-01T10:41:17.504Z,8.90
2017-11-01T10:43:44.123Z,8.90
2017-11-01T10:46:10.695Z,8.90
2017-11-01T10:48:37.327Z,9.00
2017-11-01T10:51:03.890Z,9.00
2017-11-01T10:53:30.443Z,9.10
2017-11-01T10:55:57.420Z,9.20
2017-11-01T10:58:23.991Z,9.30
2017-11-01T11:00:50.999Z,9.40
2017-11-01T11:03:17.643Z,9.40
2017-11-01T11:05:44.599Z,9.30
2017-11-01T11:08:11.204Z,9.30
2017-11-01T11:10:38.280Z,9.30
2017-11-01T11:13:04.863Z,9.30
2017-11-01T11:15:38.547Z,9.50
2017-11-01T11:18:05.143Z,9.70
2017-11-01T11:20:32.107Z,9.80
2017-11-01T11:22:58.943Z,9.80
2017-11-01T11:25:25.524Z,9.90
2017-11-01T11:27:52.474Z,9.80
2017-11-01T11:30:19.097Z,9.80
2017-11-01T11:32:45.698Z,9.60
2017-11-01T11:35:12.683Z,9.40
2017-11-01T11:37:40.123Z,9.40
2017-11-01T11:40:06.794Z,9.30
2017-11-01T11:42:33.727Z,9.10
2017-11-01T11:45:00.352Z,9.10
2017-11-01T11:47:26.923Z,9.00
2017-11-01T11:49:53.499Z,9.00
2017-11-01T11:52:20.284Z,9.00
2017-11-01T11:54:46.887Z,9.00
2017-11-01T11:57:13.518Z,9.00
2017-11-01T11:59:40.183Z,9.00
2017-11-01T12:02:06.836Z,9.00
2017-11-01T12:04:33.410Z,8.90
2017-11-01T12:07:00.686Z,8.90
2017-11-01T12:09:27.295Z,9.00
2017-11-01T12:11:53.862Z,9.00
2017-11-01T12:14:20.523Z,9.00
2017-11-01T12:16:47.127Z,9.00
2017-11-01T12:19:14.075Z,9.10
2017-11-01T12:21:40.923Z,9.10
2017-11-01T12:24:07.495Z,9.10
2017-11-01T12:26:34.120Z,9.10
2017-11-01T12:29:00.742Z,9.10
2017-11-01T12:31:27.665Z,9.00
2017-11-01T12:33:54.599Z,9.10
2017-11-01T12:36:21.618Z,9.00
2017-11-01T12:38:48.600Z,9.00
2017-11-01T12:41:15.154Z,9.00
2017-11-01T12:43:41.782Z,9.00
2017-11-01T12:46:08.341Z,9.10
2017-11-01T12:48:34.903Z,9.10
2017-11-01T12:51:01.560Z,9.10
2017-11-01T12:53:28.484Z,9.10
2017-11-01T12:55:55.412Z,9.10
2017-11-01T12:58:22.403Z,9.10
2017-11-01T13:00:49.020Z,9.20
2017-11-01T13:03:15.599Z,9.10
2017-11-01T13:05:42.591Z,9.00
2017-11-01T13:08:09.155Z,9.00
2017-11-01T13:10:36.103Z,9.00
2017-11-01T13:13:02.743Z,9.00
2017-11-01T13:15:29.292Z,8.90
2017-11-01T13:17:55.880Z,8.90
2017-11-01T13:20:22.487Z,8.80
2017-11-01T13:22:49.091Z,8.80
2017-11-01T13:25:15.668Z,8.80
2017-11-01T13:27:42.475Z,8.70
2017-11-01T13:30:09.099Z,8.70
2017-11-01T13:32:35.660Z,8.70
2017-11-01T13:35:02.723Z,8.70
2017-11-01T13:37:29.373Z,8.70
2017-11-01T13:39:55.942Z,8.70
2017-11-01T13:42:22.945Z,8.80
2017-11-01T13:44:49.506Z,8.80
2017-11-01T13:47:16.116Z,8.90
2017-11-01T13:49:42.754Z,9.00
2017-11-01T13:52:09.335Z,9.00
2017-11-01T13:54:36.303Z,9.20
2017-11-01T13:57:03.555Z,9.30
2017-11-01T13:59:30.137Z,9.30
2017-11-01T14:01:56.720Z,9.40
2017-11-01T14:04:23.614Z,9.60
2017-11-01T14:06:50.220Z,9.70
2017-11-01T14:09:16.772Z,9.70
2017-11-01T14:11:43.394Z,9.80
2017-11-01T14:14:09.956Z,9.90
2017-11-01T14:16:36.521Z,10.10
2017-11-01T14:19:03.140Z,10.10
2017-11-01T14:21:29.691Z,10.00
2017-11-01T14:23:56.295Z,10.00
2017-11-01T14:26:22.928Z,9.90
2017-11-01T14:28:49.512Z,9.90
2017-11-01T14:31:16.072Z,9.90
2017-11-01T14:33:42.687Z,9.90
2017-11-01T14:36:09.252Z,9.90
2017-11-01T14:38:35.863Z,9.90
2017-11-01T14:41:02.888Z,10.00
2017-11-01T14:43:29.826Z,9.90
2017-11-01T14:45:56.750Z,9.90
2017-11-01T14:48:23.735Z,9.90
2017-11-01T14:50:50.296Z,9.90
2017-11-01T14:53:17.238Z,9.80
2017-11-01T14:55:43.987Z,9.80
2017-11-01T14:58:10.551Z,9.80
2017-11-01T15:00:37.223Z,9.70
2017-11-01T15:03:03.882Z,9.60
2017-11-01T15:05:30.439Z,9.60
2017-11-01T15:07:57.363Z,9.60
2017-11-01T15:10:24.362Z,9.70
2017-11-01T15:12:50.931Z,9.70
2017-11-01T15:15:17.491Z,9.60
2017-11-01T15:17:44.299Z,9.50
2017-11-01T15:20:10.902Z,9.30
2017-11-01T15:22:37.559Z,9.20
2017-11-01T15:25:04.172Z,9.10
2017-11-01T15:27:30.732Z,9.10
2017-11-01T15:29:57.679Z,9.00
2017-11-01T15:32:24.676Z,9.00
2017-11-01T15:34:51.239Z,9.00
2017-11-01T15:37:17.795Z,8.90
2017-11-01T15:39:44.419Z,8.80
2017-11-01T15:42:10.980Z,8.80
2017-11-01T15:44:37.995Z,8.80
2017-11-01T15:47:04.987Z,8.70
2017-11-01T15:49:31.548Z,8.70
2017-11-01T15:51:58.485Z,8.90
2017-11-01T15:54:25.480Z,8.80
2017-11-01T15:56:52.047Z,8.80
2017-11-01T15:59:18.584Z,8.70
2017-11-01T16:01:46.275Z,8.60
2017-11-01T16:04:12.837Z,8.60
2017-11-01T16:06:39.395Z,8.60
2017-11-01T16:09:06.535Z,8.50
2017-11-01T16:11:33.179Z,8.50
2017-11-01T16:13:59.734Z,8.40
2017-11-01T16:16:26.459Z,8.30
2017-11-01T16:18:53.103Z,8.20
2017-11-01T16:21:19.676Z,8.20
2017-11-01T16:23:46.791Z,8.10
2017-11-01T16:26:13.346Z,8.10
2017-11-01T16:28:46.963Z,8.00
2017-11-01T16:31:13.572Z,7.90
2017-11-01T16:33:40.147Z,7.70
2017-11-01T16:36:07.247Z,7.50
2017-11-01T16:38:33.804Z,7.50
2017-11-01T16:41:00.420Z,7.40
2017-11-01T16:43:27.052Z,7.30
2017-11-01T16:45:53.974Z,7.20
2017-11-01T16:48:20.543Z,7.20
2017-11-01T16:50:47.675Z,7.10
2017-11-01T16:53:14.232Z,7.10
2017-11-01T16:55:41.179Z,7.00
2017-11-01T16:58:08.630Z,7.10
2017-11-01T17:00:35.580Z,7.10
2017-11-01T17:03:02.146Z,7.10
2017-11-01T17:05:28.784Z,7.10
2017-11-01T17:07:55.342Z,7.20
2017-11-01T17:10:21.910Z,7.20
2017-11-01T17:12:48.512Z,7.20
2017-11-01T17:15:15.073Z,7.20
2017-11-01T17:17:42.004Z,7.10
2017-11-01T17:20:09.175Z,7.00
2017-11-01T17:22:35.739Z,7.00
2017-11-01T17:25:02.468Z,7.10
2017-11-01T17:27:29.088Z,7.20
2017-11-01T17:29:55.647Z,7.30
2017-11-01T17:32:22.199Z,7.30
2017-11-01T17:34:48.815Z,7.10
2017-11-01T17:37:15.363Z,7.00
2017-11-01T17:39:41.928Z,6.90
2017-11-01T17:42:08.554Z,6.80
2017-11-01T17:44:35.111Z,6.70
2017-11-01T17:47:01.681Z,6.70
2017-11-01T17:49:28.307Z,6.70
2017-11-01T17:51:54.859Z,6.80
2017-11-01T17:54:21.418Z,6.90
2017-11-01T17:56:48.514Z,6.80
2017-11-01T17:59:15.098Z,6.90
2017-11-01T18:01:41.663Z,6.80
2017-11-01T18:04:15.343Z,6.80
2017-11-01T18:06:41.908Z,6.90
2017-11-01T18:09:08.885Z,6.80
2017-11-01T18:11:36.247Z,6.80
2017-11-01T18:14:02.819Z,6.80
2017-11-01T18:16:29.400Z,6.70
2017-11-01T18:18:56.012Z,6.60
2017-11-01T18:21:22.579Z,6.60
2017-11-01T18:23:49.140Z,6.60
2017-11-01T18:26:15.784Z,6.50
2017-11-01T18:28:42.714Z,6.30
2017-11-01T18:31:09.295Z,6.30
2017-11-01T18:33:35.916Z,6.20
2017-11-01T18:36:02.567Z,6.20
2017-11-01T18:38:29.127Z,6.10
2017-11-01T18:40:55.769Z,6.10
2017-11-01T18:43:22.334Z,6.00
2017-11-01T18:45:48.887Z,6.00
2017-11-01T18:48:15.607Z,5.90
2017-11-01T18:50:42.167Z,5.90
2017-11-01T18:53:08.920Z,5.80
2017-11-01T18:55:35.883Z,5.80
2017-11-01T18:58:02.459Z,5.70
2017-11-01T19:00:29.091Z,5.70
2017-11-01T19:02:55.891Z,5.70
2017-11-01T19:05:22.539Z,5.70
2017-11-01T19:07:49.138Z,5.70
2017-11-01T19:10:15.986Z,5.70
2017-11-01T19:12:42.708Z,5.60
2017-11-01T19:15:09.327Z,5.60
2017-11-01T19:17:36.037Z,5.60
2017-11-01T19:20:02.757Z,5.50
2017-11-01T19:22:29.399Z,5.50
2017-11-01T19:24:57.459Z,5.40
2017-11-01T19:27:24.771Z,5.40
2017-11-01T19:29:51.376Z,5.40
2017-11-01T19:32:19.132Z,5.40
2017-11-01T19:34:45.780Z,5.40
2017-11-01T19:37:12.379Z,5.40
2017-11-01T19:39:46.234Z,5.30
2017-11-01T19:42:12.990Z,5.40
2017-11-01T19:44:39.944Z,5.40
2017-11-01T19:47:07.152Z,5.40
2017-11-01T19:49:34.428Z,5.40
2017-11-01T19:52:01.529Z,5.40
2017-11-01T19:54:28.760Z,5.30
2017-11-01T19:56:55.405Z,5.30
2017-11-01T19:59:22.435Z,5.20
2017-11-01T20:01:50.080Z,5.20
2017-11-01T20:04:17.112Z,5.30
2017-11-01T20:06:44.140Z,5.40
2017-11-01T20:09:10.840Z,5.40
2017-11-01T20:11:38.101Z,5.40
2017-11-01T20:14:04.815Z,5.40
2017-11-01T20:16:31.856Z,5.40
2017-11-01T20:18:59.780Z,5.30
2017-11-01T20:21:27.322Z,5.30
2017-11-01T20:23:54.585Z,5.30
2017-11-01T20:26:21.308Z,5.20
2017-11-01T20:28:49.236Z,5.10
2017-11-01T20:31:15.983Z,5.10
2017-11-01T20:33:42.645Z,5.10
2017-11-01T20:36:09.280Z,5.10
2017-11-01T20:38:36.061Z,5.00
2017-11-01T20:41:04.108Z,4.80
2017-11-01T20:43:31.139Z,4.80
2017-11-01T20:45:57.851Z,4.80
2017-11-01T20:48:25.315Z,4.80
2017-11-01T20:50:51.922Z,4.90
2017-11-01T20:53:19.090Z,4.90
2017-11-01T20:55:46.072Z,4.90
2017-11-01T20:58:13.499Z,4.90
2017-11-01T21:00:40.248Z,4.90
2017-11-01T21:03:06.886Z,4.80
2017-11-01T21:05:34.931Z,4.90
2017-11-01T21:08:02.368Z,4.90
2017-11-01T21:10:29.474Z,4.90
2017-11-01T21:12:56.121Z,4.90
2017-11-01T21:15:24.004Z,4.90
2017-11-01T21:17:50.909Z,4.90
2017-11-01T21:20:17.928Z,5.00
2017-11-01T21:22:44.754Z,5.00
2017-11-01T21:25:11.888Z,5.10
2017-11-01T21:27:38.917Z,5.00
2017-11-01T21:30:05.947Z,5.00
2017-11-01T21:32:32.571Z,5.00
2017-11-01T21:34:59.192Z,5.00
2017-11-01T21:37:25.813Z,5.00
2017-11-01T21:39:53.843Z,4.90
2017-11-01T21:42:21.513Z,4.90
2017-11-01T21:44:49.669Z,4.80
2017-11-01T21:47:16.698Z,4.80
2017-11-01T21:49:43.321Z,4.80
2017-11-01T21:52:10.019Z,4.70
2017-11-01T21:54:36.942Z,4.70
2017-11-01T21:57:03.671Z,4.70
2017-11-01T21:59:31.346Z,4.60
2017-11-01T22:01:58.065Z,4.60
2017-11-01T22:04:24.664Z,4.60
2017-11-01T22:06:51.510Z,4.60
2017-11-01T22:09:18.977Z,4.60
2017-11-01T22:11:45.880Z,4.60
2017-11-01T22:14:12.575Z,4.60
2017-11-01T22:16:39.633Z,4.60
2017-11-01T22:19:06.356Z,4.60
2017-11-01T22:21:32.980Z,4.60
2017-11-01T22:24:01.035Z,4.60
2017-11-01T22:26:27.655Z,4.60
2017-11-01T22:28:54.357Z,4.60
2017-11-01T22:31:20.998Z,4.60
2017-11-01T22:33:47.591Z,4.50
2017-11-01T22:36:14.342Z,4.50
2017-11-01T22:38:40.964Z,4.50
2017-11-01T22:41:07.968Z,4.60
2017-11-01T22:43:34.591Z,4.60
2017-11-01T22:46:01.239Z,4.50
2017-11-01T22:48:28.268Z,4.60
2017-11-01T22:50:54.891Z,4.60
2017-11-01T22:53:21.488Z,4.50
2017-11-01T22:55:48.234Z,4.40
2017-11-01T22:58:14.955Z,4.40
2017-11-01T23:00:41.959Z,4.30
2017-11-01T23:03:09.033Z,4.30
2017-11-01T23:05:36.356Z,4.10
2017-11-01T23:08:03.294Z,4.10
2017-11-01T23:10:30.427Z,4.00
2017-11-01T23:12:58.597Z,4.00
2017-11-01T23:15:25.505Z,4.00
2017-11-01T23:17:52.337Z,3.90
2017-11-01T23:20:19.566Z,3.90
2017-11-01T23:22:46.811Z,3.90
2017-11-01T23:25:14.045Z,4.00
2017-11-01T23:27:41.177Z,4.00
2017-11-01T23:30:08.408Z,4.00
2017-11-01T23:32:35.741Z,4.00
2017-11-01T23:35:02.477Z,4.00
2017-11-01T23:37:29.713Z,3.90
2017-11-01T23:39:56.942Z,3.80
2017-11-01T23:42:24.892Z,3.80
2017-11-01T23:44:52.127Z,3.90
2017-11-01T23:47:18.968Z,3.90
2017-11-01T23:49:46.193Z,3.80
2017-11-01T23:52:13.433Z,3.70
2017-11-01T23:54:40.556Z,3.70
2017-11-01T23:57:07.914Z,3.60
2017-11-01T23:59:35.240Z,3.60
